createdAt,value
2017-07-25T00:00:24.421Z,2.13
2017-07-25T00:02:51.861Z,2.60
2017-07-25T00:05:19.342Z,2.70
2017-07-25T00:07:46.786Z,2.87
2017-07-25T00:10:14.225Z,3.03
2017-07-25T00:12:41.692Z,3.87
2017-07-25T00:15:09.156Z,3.40
2017-07-25T00:17:36.684Z,3.73
2017-07-25T00:20:04.145Z,4.37
2017-07-25T00:22:31.616Z,4.00
2017-07-25T00:24:59.211Z,3.83
2017-07-25T00:27:27.224Z,3.23
2017-07-25T00:29:54.710Z,3.83
2017-07-25T00:32:22.162Z,4.17
2017-07-25T00:34:49.633Z,3.63
2017-07-25T00:37:17.081Z,3.20
2017-07-25T00:39:44.549Z,3.53
2017-07-25T00:42:11.997Z,3.30
2017-07-25T00:44:39.486Z,2.83
2017-07-25T00:47:06.933Z,2.60
2017-07-25T00:49:34.388Z,2.00
2017-07-25T00:54:38.536Z,2.70
2017-07-25T00:57:05.974Z,2.23
2017-07-25T00:59:33.417Z,3.03
2017-07-25T01:02:00.897Z,2.67
2017-07-25T01:04:28.352Z,2.57
2017-07-25T01:06:55.804Z,2.27
2017-07-25T01:09:23.269Z,2.43
2017-07-25T01:11:50.746Z,2.93
2017-07-25T01:14:18.185Z,2.30
2017-07-25T01:16:45.631Z,2.10
2017-07-25T01:19:13.117Z,2.30
2017-07-25T01:21:40.567Z,2.53
2017-07-25T01:24:08.014Z,2.60
2017-07-25T01:26:35.486Z,2.30
2017-07-25T01:29:02.935Z,2.07
2017-07-25T01:31:30.405Z,2.40
2017-07-25T01:33:57.866Z,2.20
2017-07-25T01:36:30.246Z,3.00
2017-07-25T01:38:57.725Z,2.90
2017-07-25T01:41:25.190Z,2.30
2017-07-25T01:43:52.633Z,2.60
2017-07-25T01:46:20.104Z,2.70
2017-07-25T01:48:47.594Z,2.40
2017-07-25T01:51:15.036Z,2.23
2017-07-25T01:53:42.522Z,3.03
2017-07-25T01:56:09.978Z,2.73
2017-07-25T01:58:37.428Z,2.63
2017-07-25T02:01:04.909Z,2.80
2017-07-25T02:03:32.355Z,2.37
2017-07-25T02:05:59.808Z,3.00
2017-07-25T02:08:27.273Z,2.73
2017-07-25T02:10:54.720Z,2.47
2017-07-25T02:13:22.193Z,2.70
2017-07-25T02:15:49.628Z,3.43
2017-07-25T02:18:17.112Z,2.77
2017-07-25T02:20:44.556Z,2.63
2017-07-25T02:23:12.006Z,3.40
2017-07-25T02:25:39.492Z,2.93
2017-07-25T02:28:06.939Z,3.30
2017-07-25T02:30:34.397Z,3.70
2017-07-25T02:33:01.878Z,3.40
2017-07-25T02:35:29.328Z,2.40
2017-07-25T02:37:56.793Z,2.93
2017-07-25T02:40:24.253Z,3.33
2017-07-25T02:42:51.717Z,3.27
2017-07-25T02:45:19.191Z,2.90
2017-07-25T02:47:46.645Z,3.63
2017-07-25T02:50:14.096Z,3.47
2017-07-25T02:52:41.560Z,3.30
2017-07-25T02:55:09.014Z,3.10
2017-07-25T02:57:36.506Z,3.30
2017-07-25T03:00:03.970Z,3.37
2017-07-25T03:02:31.420Z,2.80
2017-07-25T03:04:58.893Z,3.20
2017-07-25T03:07:26.357Z,3.40
2017-07-25T03:09:53.805Z,2.87
2017-07-25T03:12:21.258Z,2.43
2017-07-25T03:14:48.713Z,3.30
2017-07-25T03:17:16.180Z,2.90
2017-07-25T03:19:43.654Z,3.63
2017-07-25T03:22:11.100Z,3.43
2017-07-25T03:24:38.542Z,3.73
2017-07-25T03:27:06.017Z,4.00
2017-07-25T03:29:33.488Z,3.90
2017-07-25T03:32:00.936Z,4.10
2017-07-25T03:34:28.539Z,3.43
2017-07-25T03:36:55.993Z,3.47
2017-07-25T03:39:23.438Z,3.60
2017-07-25T03:41:51.323Z,3.73
2017-07-25T03:44:18.773Z,3.13
2017-07-25T03:46:46.225Z,2.80
2017-07-25T03:49:13.696Z,2.50
2017-07-25T03:51:41.168Z,3.07
2017-07-25T03:54:08.610Z,3.13
2017-07-25T03:56:36.086Z,3.20
2017-07-25T03:59:03.556Z,3.27
2017-07-25T04:01:31.867Z,3.43
2017-07-25T04:03:59.344Z,3.37
2017-07-25T04:06:26.789Z,3.03
2017-07-25T04:08:54.252Z,3.10
2017-07-25T04:11:21.718Z,2.37
2017-07-25T04:13:49.178Z,3.40
2017-07-25T04:16:16.653Z,2.90
2017-07-25T04:18:44.101Z,3.17
2017-07-25T04:21:11.693Z,2.87
2017-07-25T04:23:39.140Z,2.77
2017-07-25T04:26:06.584Z,2.97
2017-07-25T04:28:34.053Z,2.23
2017-07-25T04:31:01.497Z,3.13
2017-07-25T04:33:29.217Z,3.20
2017-07-25T04:35:56.925Z,3.37
2017-07-25T04:38:24.810Z,3.33
2017-07-25T04:40:52.269Z,3.17
2017-07-25T04:43:19.921Z,3.47
2017-07-25T04:45:47.376Z,3.23
2017-07-25T04:48:14.830Z,3.10
2017-07-25T04:50:42.296Z,3.30
2017-07-25T04:53:09.758Z,3.10
2017-07-25T04:55:37.221Z,3.17
2017-07-25T04:58:04.667Z,2.40
2017-07-25T05:00:32.138Z,2.60
2017-07-25T05:02:59.623Z,2.10
2017-07-25T05:05:27.068Z,2.67
2017-07-25T05:07:54.705Z,3.90
2017-07-25T05:10:22.152Z,3.13
2017-07-25T05:12:49.602Z,3.10
2017-07-25T05:15:17.246Z,2.83
2017-07-25T05:17:44.690Z,3.23
2017-07-25T05:20:12.129Z,3.87
2017-07-25T05:22:39.624Z,3.67
2017-07-25T05:25:07.106Z,3.80
2017-07-25T05:27:34.533Z,2.47
2017-07-25T05:30:01.997Z,2.40
2017-07-25T05:32:29.467Z,2.67
2017-07-25T05:34:56.936Z,2.10
2017-07-25T05:37:24.369Z,2.20
2017-07-25T05:39:51.840Z,2.50
2017-07-25T05:42:19.297Z,3.13
2017-07-25T05:44:46.766Z,2.73
2017-07-25T05:47:14.210Z,1.97
2017-07-25T05:49:41.685Z,2.90
2017-07-25T05:52:09.165Z,3.10
2017-07-25T05:54:36.616Z,3.20
2017-07-25T05:57:04.069Z,3.20
2017-07-25T05:59:31.542Z,2.90
2017-07-25T06:01:58.989Z,2.70
2017-07-25T06:04:26.453Z,2.87
2017-07-25T06:06:53.893Z,4.10
2017-07-25T06:09:21.368Z,6.10
2017-07-25T06:11:48.840Z,3.50
2017-07-25T06:14:16.543Z,2.90
2017-07-25T06:16:43.997Z,4.47
2017-07-25T06:19:11.453Z,2.67
2017-07-25T06:21:39.291Z,3.37
2017-07-25T06:24:06.741Z,2.90
2017-07-25T06:26:34.185Z,2.60
2017-07-25T06:29:01.670Z,3.13
2017-07-25T06:31:29.430Z,3.43
2017-07-25T06:33:56.873Z,3.77
2017-07-25T06:36:24.321Z,2.83
2017-07-25T06:38:51.802Z,2.80
2017-07-25T06:41:19.243Z,3.67
2017-07-25T06:43:46.708Z,3.40
2017-07-25T06:46:14.148Z,3.27
2017-07-25T06:48:41.632Z,2.73
2017-07-25T06:51:09.073Z,3.37
2017-07-25T06:53:36.522Z,3.10
2017-07-25T06:56:03.990Z,3.00
2017-07-25T06:58:31.457Z,3.10
2017-07-25T07:00:58.912Z,3.00
2017-07-25T07:03:26.380Z,2.60
2017-07-25T07:05:53.829Z,2.57
2017-07-25T07:08:21.633Z,2.13
2017-07-25T07:10:49.081Z,2.40
2017-07-25T07:13:16.532Z,2.53
2017-07-25T07:15:44.016Z,2.50
2017-07-25T07:18:11.468Z,2.20
2017-07-25T07:20:38.948Z,2.70
2017-07-25T07:23:06.400Z,2.07
2017-07-25T07:25:33.845Z,3.83
2017-07-25T07:28:01.317Z,1.87
2017-07-25T07:30:28.760Z,2.03
2017-07-25T07:32:56.228Z,2.27
2017-07-25T07:35:23.677Z,1.90
2017-07-25T07:37:51.154Z,2.78
2017-07-25T07:40:18.628Z,2.23
2017-07-25T07:42:46.098Z,1.87
2017-07-25T07:45:13.542Z,2.13
2017-07-25T07:47:41.021Z,1.83
2017-07-25T07:50:08.469Z,3.00
2017-07-25T07:52:35.917Z,2.57
2017-07-25T07:55:03.384Z,3.27
2017-07-25T07:57:30.860Z,4.50
2017-07-25T07:59:58.311Z,4.60
2017-07-25T08:02:25.788Z,4.33
2017-07-25T08:04:53.237Z,4.60
2017-07-25T08:07:20.725Z,3.73
2017-07-25T08:09:48.168Z,3.87
2017-07-25T08:12:15.613Z,2.83
2017-07-25T08:14:43.091Z,2.87
2017-07-25T08:17:10.534Z,3.60
2017-07-25T08:19:37.980Z,2.23
2017-07-25T08:22:05.556Z,2.70
2017-07-25T08:24:33.000Z,2.40
2017-07-25T08:27:00.689Z,1.53
2017-07-25T08:29:28.153Z,2.20
2017-07-25T08:31:55.593Z,2.50
2017-07-25T08:34:23.053Z,1.70
2017-07-25T08:36:50.493Z,1.70
2017-07-25T08:39:17.966Z,1.83
2017-07-25T08:41:45.443Z,1.57
2017-07-25T08:44:12.886Z,1.70
2017-07-25T08:46:40.357Z,1.40
2017-07-25T08:49:07.805Z,1.87
2017-07-25T08:51:35.283Z,1.90
2017-07-25T08:54:02.756Z,0.93
2017-07-25T08:56:30.204Z,1.10
2017-07-25T08:58:57.686Z,1.10
2017-07-25T09:01:25.156Z,0.90
2017-07-25T09:03:52.609Z,0.93
2017-07-25T09:06:20.072Z,0.80
2017-07-25T09:08:47.530Z,0.97
2017-07-25T09:11:15.012Z,1.00
2017-07-25T09:13:42.460Z,0.93
2017-07-25T09:16:09.909Z,0.90
2017-07-25T09:18:37.384Z,1.50
2017-07-25T09:21:04.858Z,1.20
2017-07-25T09:23:32.822Z,1.20
2017-07-25T09:26:00.309Z,1.10
2017-07-25T09:28:27.758Z,1.07
2017-07-25T09:30:55.211Z,1.13
2017-07-25T09:33:22.686Z,0.80
2017-07-25T09:35:50.136Z,1.00
2017-07-25T09:38:17.584Z,1.30
2017-07-25T09:40:45.052Z,0.70
2017-07-25T09:43:12.496Z,0.90
2017-07-25T09:45:39.976Z,1.03
2017-07-25T09:48:07.426Z,1.17
2017-07-25T09:50:34.863Z,1.10
2017-07-25T09:53:02.349Z,0.90
2017-07-25T09:55:29.804Z,0.93
2017-07-25T09:57:57.252Z,1.10
2017-07-25T10:00:24.718Z,1.03
2017-07-25T10:02:52.160Z,0.93
2017-07-25T10:05:19.650Z,1.00
2017-07-25T10:07:47.109Z,0.90
2017-07-25T10:10:14.552Z,0.90
2017-07-25T10:12:42.033Z,2.23
2017-07-25T10:15:09.484Z,1.10
2017-07-25T10:17:36.952Z,1.13
2017-07-25T10:20:04.406Z,1.40
2017-07-25T10:22:32.201Z,2.37
2017-07-25T10:24:59.643Z,1.00
2017-07-25T10:27:27.088Z,1.20
2017-07-25T10:29:54.561Z,1.50
2017-07-25T10:32:22.021Z,1.00
2017-07-25T10:34:49.462Z,1.50
2017-07-25T10:37:16.961Z,1.20
2017-07-25T10:39:44.401Z,1.20
2017-07-25T10:42:11.849Z,1.10
2017-07-25T10:44:39.322Z,1.10
2017-07-25T10:47:06.770Z,1.43
2017-07-25T10:49:34.208Z,1.10
2017-07-25T10:52:01.686Z,1.60
2017-07-25T10:54:29.256Z,1.37
2017-07-25T10:56:56.693Z,1.27
2017-07-25T10:59:24.151Z,1.20
2017-07-25T11:01:51.620Z,1.27
2017-07-25T11:04:19.061Z,1.70
2017-07-25T11:06:46.532Z,1.97
2017-07-25T11:09:13.978Z,1.40
2017-07-25T11:11:41.450Z,1.30
2017-07-25T11:14:08.900Z,1.50
2017-07-25T11:16:36.396Z,1.37
2017-07-25T11:19:03.853Z,2.13
2017-07-25T11:21:31.302Z,1.50
2017-07-25T11:23:58.769Z,2.00
2017-07-25T11:26:26.213Z,1.87
2017-07-25T11:28:53.677Z,1.57
2017-07-25T11:31:21.121Z,1.40
2017-07-25T11:33:48.594Z,1.67
2017-07-25T11:36:16.169Z,1.40
2017-07-25T11:38:43.611Z,1.50
2017-07-25T11:41:11.063Z,1.50
2017-07-25T11:43:38.980Z,1.40
2017-07-25T11:46:06.423Z,1.67
2017-07-25T11:48:33.869Z,2.20
2017-07-25T11:51:01.342Z,1.33
2017-07-25T11:53:28.781Z,1.23
2017-07-25T11:55:56.237Z,1.60
2017-07-25T11:58:23.701Z,1.60
2017-07-25T12:00:51.157Z,1.20
2017-07-25T12:03:18.623Z,1.70
2017-07-25T12:05:46.105Z,1.70
2017-07-25T12:08:13.558Z,1.40
2017-07-25T12:10:41.005Z,1.40
2017-07-25T12:13:08.482Z,1.50
2017-07-25T12:15:35.924Z,1.90
2017-07-25T12:18:03.369Z,1.20
2017-07-25T12:20:30.860Z,1.47
2017-07-25T12:22:58.318Z,2.13
2017-07-25T12:25:25.762Z,3.53
2017-07-25T12:27:53.229Z,3.93
2017-07-25T12:30:20.679Z,2.90
2017-07-25T12:32:48.164Z,2.80
2017-07-25T12:35:15.602Z,3.57
2017-07-25T12:37:43.048Z,3.40
2017-07-25T12:40:10.806Z,2.40
2017-07-25T12:42:38.245Z,2.43
2017-07-25T12:45:05.694Z,2.27
2017-07-25T12:47:33.191Z,2.00
2017-07-25T12:50:00.632Z,2.00
2017-07-25T12:52:28.073Z,1.30
2017-07-25T12:54:55.571Z,2.10
2017-07-25T12:57:23.021Z,1.80
2017-07-25T12:59:50.493Z,1.80
2017-07-25T13:02:29.665Z,1.80
2017-07-25T13:04:57.142Z,2.43
2017-07-25T13:07:24.627Z,2.10
2017-07-25T13:09:52.071Z,2.63
2017-07-25T13:12:19.525Z,2.30
2017-07-25T13:14:46.986Z,1.43
2017-07-25T13:17:14.473Z,1.30
2017-07-25T13:19:41.918Z,1.60
2017-07-25T13:22:09.363Z,1.27
2017-07-25T13:24:36.827Z,1.23
2017-07-25T13:27:04.305Z,1.20
2017-07-25T13:29:31.749Z,1.70
2017-07-25T13:31:59.194Z,1.50
2017-07-25T13:34:26.707Z,1.57
2017-07-25T13:36:54.177Z,1.67
2017-07-25T13:39:21.661Z,1.70
2017-07-25T13:41:49.101Z,1.10
2017-07-25T13:44:16.580Z,1.13
2017-07-25T13:46:44.017Z,1.30
2017-07-25T13:49:11.491Z,1.10
2017-07-25T13:51:38.944Z,1.43
2017-07-25T13:54:06.413Z,1.03
2017-07-25T13:56:33.857Z,1.07
2017-07-25T13:59:01.345Z,0.90
2017-07-25T14:01:28.798Z,0.87
2017-07-25T14:03:56.278Z,0.90
2017-07-25T14:06:23.940Z,0.80
2017-07-25T14:08:51.377Z,0.70
2017-07-25T14:11:18.819Z,0.83
2017-07-25T14:13:46.288Z,0.80
2017-07-25T14:16:13.753Z,0.83
2017-07-25T14:18:41.201Z,0.97
2017-07-25T14:21:08.673Z,1.00
2017-07-25T14:23:36.119Z,0.87
2017-07-25T14:26:03.603Z,1.30
2017-07-25T14:28:31.079Z,1.13
2017-07-25T14:30:58.545Z,1.00
2017-07-25T14:33:25.992Z,0.90
2017-07-25T14:35:53.456Z,1.00
2017-07-25T14:38:20.904Z,1.10
2017-07-25T14:40:48.370Z,1.40
2017-07-25T14:43:15.837Z,1.20
2017-07-25T14:45:43.301Z,0.90
2017-07-25T14:48:10.745Z,0.97
2017-07-25T14:50:38.212Z,0.80
2017-07-25T14:53:05.659Z,0.70
2017-07-25T14:55:33.154Z,0.80
2017-07-25T15:00:37.390Z,0.90
2017-07-25T15:03:06.601Z,0.80
2017-07-25T15:05:34.091Z,0.80
2017-07-25T15:08:01.655Z,0.90
2017-07-25T15:10:29.323Z,0.73
2017-07-25T15:12:57.069Z,0.83
2017-07-25T15:15:25.297Z,0.60
2017-07-25T15:17:52.913Z,0.70
2017-07-25T15:20:21.569Z,0.70
2017-07-25T15:22:49.068Z,0.70
2017-07-25T15:25:16.543Z,0.90
2017-07-25T15:27:44.021Z,0.70
2017-07-25T15:30:11.463Z,0.60
2017-07-25T15:32:38.944Z,0.70
2017-07-25T15:35:06.392Z,0.90
2017-07-25T15:37:33.858Z,0.80
2017-07-25T15:40:01.305Z,0.80
2017-07-25T15:42:28.783Z,0.90
2017-07-25T15:44:56.229Z,0.70
2017-07-25T15:47:23.679Z,1.00
2017-07-25T15:49:51.390Z,0.60
2017-07-25T15:52:18.828Z,0.90
2017-07-25T15:54:46.272Z,1.00
2017-07-25T15:57:13.745Z,0.90
2017-07-25T15:59:41.199Z,0.70
2017-07-25T16:02:08.674Z,0.80
2017-07-25T16:04:36.117Z,0.70
2017-07-25T16:07:03.741Z,1.10
2017-07-25T16:09:31.193Z,0.80
2017-07-25T16:11:58.643Z,0.87
2017-07-25T16:14:26.112Z,0.90
2017-07-25T16:16:53.581Z,1.00
2017-07-25T16:19:21.029Z,0.97
2017-07-25T16:21:48.525Z,1.10
2017-07-25T16:24:15.991Z,0.90
2017-07-25T16:26:43.433Z,0.90
2017-07-25T16:29:10.909Z,0.77
2017-07-25T16:31:38.390Z,0.80
2017-07-25T16:34:05.865Z,0.70
2017-07-25T16:36:33.333Z,1.00
2017-07-25T16:39:00.786Z,0.90
2017-07-25T16:41:28.252Z,0.80
2017-07-25T16:43:55.745Z,0.70
2017-07-25T16:46:23.185Z,0.90
2017-07-25T16:48:50.630Z,0.90
2017-07-25T16:51:18.091Z,1.10
2017-07-25T16:53:45.530Z,1.00
2017-07-25T16:56:14.891Z,1.10
2017-07-25T16:58:44.651Z,0.80
2017-07-25T17:01:14.005Z,1.20
2017-07-25T17:03:43.508Z,1.20
2017-07-25T17:06:11.045Z,1.30
2017-07-25T17:08:38.486Z,0.80
2017-07-25T17:11:05.957Z,0.90
2017-07-25T17:13:33.409Z,1.13
2017-07-25T17:16:00.904Z,2.20
2017-07-25T17:18:28.355Z,1.10
2017-07-25T17:20:55.806Z,1.07
2017-07-25T17:23:23.474Z,1.00
2017-07-25T17:25:50.948Z,0.80
2017-07-25T17:28:18.397Z,0.90
2017-07-25T17:30:45.856Z,0.87
2017-07-25T17:33:13.290Z,1.37
2017-07-25T17:35:40.866Z,1.70
2017-07-25T17:38:08.316Z,0.80
2017-07-25T17:40:36.449Z,1.07
2017-07-25T17:43:04.564Z,1.20
2017-07-25T17:45:32.093Z,1.00
2017-07-25T17:47:59.541Z,1.40
2017-07-25T17:50:26.988Z,1.77
2017-07-25T17:52:54.465Z,0.70
2017-07-25T17:55:21.934Z,0.70
2017-07-25T17:57:50.209Z,0.73
2017-07-25T18:00:18.430Z,0.60
2017-07-25T18:02:46.358Z,0.60
2017-07-25T18:05:13.822Z,1.03
2017-07-25T18:07:41.502Z,0.80
2017-07-25T18:10:08.984Z,0.80
2017-07-25T18:12:36.666Z,2.57
2017-07-25T18:15:04.126Z,1.10
2017-07-25T18:17:31.594Z,1.00
2017-07-25T18:19:59.045Z,1.20
2017-07-25T18:22:26.838Z,1.10
2017-07-25T18:24:54.887Z,1.30
2017-07-25T18:27:22.342Z,0.97
2017-07-25T18:29:49.828Z,1.00
2017-07-25T18:32:17.288Z,1.17
2017-07-25T18:34:45.546Z,1.57
2017-07-25T18:37:14.554Z,1.30
2017-07-25T18:39:42.501Z,1.50
2017-07-25T18:42:10.174Z,1.40
2017-07-25T18:44:37.621Z,1.53
2017-07-25T18:47:06.153Z,1.10
2017-07-25T18:49:34.921Z,1.23
2017-07-25T18:52:02.454Z,1.30
2017-07-25T18:54:29.893Z,1.50
2017-07-25T18:56:57.354Z,1.20
2017-07-25T18:59:26.009Z,1.17
2017-07-25T19:01:53.852Z,1.00
2017-07-25T19:04:21.564Z,2.10
2017-07-25T19:06:49.018Z,1.40
2017-07-25T19:09:16.460Z,1.20
2017-07-25T19:11:44.012Z,1.63
2017-07-25T19:14:11.467Z,2.40
2017-07-25T19:16:38.935Z,1.30
2017-07-25T19:19:07.164Z,1.70
2017-07-25T19:21:35.553Z,1.00
2017-07-25T19:24:04.310Z,1.17
2017-07-25T19:26:31.752Z,1.23
2017-07-25T19:28:59.227Z,4.47
2017-07-25T19:31:27.586Z,1.40
2017-07-25T19:33:55.029Z,1.23
2017-07-25T19:36:22.497Z,1.10
2017-07-25T19:38:49.985Z,1.40
2017-07-25T19:41:17.690Z,1.50
2017-07-25T19:43:46.148Z,1.77
2017-07-25T19:46:13.631Z,1.20
2017-07-25T19:48:41.077Z,0.90
2017-07-25T19:51:08.537Z,1.20
2017-07-25T19:53:36.018Z,1.30
2017-07-25T19:56:03.459Z,1.10
2017-07-25T19:58:30.905Z,1.00
2017-07-25T20:00:58.378Z,1.30
2017-07-25T20:03:26.145Z,1.20
2017-07-25T20:05:53.665Z,1.40
2017-07-25T20:08:21.121Z,1.97
2017-07-25T20:10:48.826Z,1.20
2017-07-25T20:13:16.905Z,0.80
2017-07-25T20:15:44.374Z,1.30
2017-07-25T20:18:12.229Z,1.40
2017-07-25T20:20:39.707Z,1.20
2017-07-25T20:23:07.152Z,1.17
2017-07-25T20:25:34.817Z,1.13
2017-07-25T20:28:02.322Z,1.00
2017-07-25T20:30:29.773Z,1.60
2017-07-25T20:32:57.251Z,2.10
2017-07-25T20:35:26.093Z,1.10
2017-07-25T20:37:53.535Z,1.23
2017-07-25T20:40:20.984Z,1.10
2017-07-25T20:42:48.932Z,1.27
2017-07-25T20:45:16.380Z,1.10
2017-07-25T20:47:43.826Z,1.50
2017-07-25T20:50:11.293Z,1.20
2017-07-25T20:52:38.765Z,1.30
2017-07-25T20:55:06.226Z,1.30
2017-07-25T20:57:33.672Z,1.50
2017-07-25T21:00:01.148Z,1.50
2017-07-25T21:02:28.615Z,1.40
2017-07-25T21:04:56.065Z,1.53
2017-07-25T21:07:23.557Z,1.00
2017-07-25T21:09:51.280Z,1.63
2017-07-25T21:12:18.729Z,1.30
2017-07-25T21:14:46.207Z,1.57
2017-07-25T21:17:13.650Z,1.17
2017-07-25T21:19:41.095Z,1.00
2017-07-25T21:22:08.578Z,1.10
2017-07-25T21:24:36.065Z,1.30
2017-07-25T21:27:03.507Z,1.20
2017-07-25T21:29:30.961Z,1.13
2017-07-25T21:31:58.426Z,1.40
2017-07-25T21:34:25.902Z,1.03
2017-07-25T21:36:53.377Z,1.30
2017-07-25T21:39:20.848Z,1.07
2017-07-25T21:41:48.281Z,1.43
2017-07-25T21:44:15.727Z,1.00
2017-07-25T21:46:43.200Z,1.13
2017-07-25T21:49:10.646Z,0.90
2017-07-25T21:51:38.089Z,1.30
2017-07-25T21:54:05.574Z,1.07
2017-07-25T21:56:33.026Z,1.20
2017-07-25T21:59:00.474Z,0.90
2017-07-25T22:01:48.594Z,1.10
2017-07-25T22:04:27.733Z,1.00
2017-07-25T22:06:55.228Z,1.40
2017-07-25T22:09:22.674Z,1.00
2017-07-25T22:11:50.122Z,0.90
2017-07-25T22:14:17.761Z,1.10
2017-07-25T22:16:45.201Z,0.90
2017-07-25T22:19:12.645Z,0.90
2017-07-25T22:21:40.139Z,1.00
2017-07-25T22:24:07.577Z,0.90
2017-07-25T22:26:35.046Z,1.10
2017-07-25T22:29:02.498Z,1.10
2017-07-25T22:31:29.961Z,1.10
2017-07-25T22:33:57.417Z,1.37
2017-07-25T22:36:24.877Z,1.37
2017-07-25T22:38:52.325Z,1.50
2017-07-25T22:41:19.797Z,1.90
2017-07-25T22:43:47.273Z,1.27
2017-07-25T22:46:14.724Z,1.43
2017-07-25T22:48:42.193Z,1.87
2017-07-25T22:51:09.638Z,2.00
2017-07-25T22:53:37.080Z,1.80
2017-07-25T22:56:04.538Z,1.90
2017-07-25T22:58:31.989Z,1.90
2017-07-25T23:00:59.485Z,2.03
2017-07-25T23:03:26.936Z,1.40
2017-07-25T23:05:54.387Z,1.93
2017-07-25T23:08:21.876Z,1.23
2017-07-25T23:10:49.322Z,2.03
2017-07-25T23:13:16.761Z,1.93
2017-07-25T23:15:44.225Z,1.40
2017-07-25T23:18:11.697Z,1.73
2017-07-25T23:20:39.177Z,1.40
2017-07-25T23:23:06.629Z,1.20
2017-07-25T23:25:34.089Z,1.73
2017-07-25T23:28:01.559Z,1.57
2017-07-25T23:30:29.030Z,1.40
2017-07-25T23:32:56.485Z,1.27
2017-07-25T23:35:23.948Z,1.40
2017-07-25T23:37:51.400Z,1.40
2017-07-25T23:40:18.872Z,1.47
2017-07-25T23:42:46.344Z,1.50
2017-07-25T23:45:13.788Z,1.33
2017-07-25T23:47:41.233Z,1.60
2017-07-25T23:50:08.706Z,1.40
2017-07-25T23:52:36.153Z,1.30
2017-07-25T23:55:03.623Z,1.60
2017-07-25T23:57:31.093Z,1.77
2017-07-25T23:59:58.541Z,1.40
